sensor_id;sensor_type;location;lat;lon;timestamp;P1;durP1;ratioP1;P2;durP2;ratioP2
5349;SDS011;2697;42.144;24.794;2022-07-21T00:02:22;14.50;;;5.53;;
5349;SDS011;2697;42.144;24.794;2022-07-21T00:04:47;15.50;;;6.20;;
5349;SDS011;2697;42.144;24.794;2022-07-21T00:07:13;15.77;;;6.60;;
5349;SDS011;2697;42.144;24.794;2022-07-21T00:09:38;22.10;;;5.83;;
5349;SDS011;2697;42.144;24.794;2022-07-21T00:12:04;16.83;;;5.80;;
5349;SDS011;2697;42.144;24.794;2022-07-21T00:14:30;18.13;;;5.70;;
5349;SDS011;2697;42.144;24.794;2022-07-21T00:16:56;16.53;;;6.93;;
5349;SDS011;2697;42.144;24.794;2022-07-21T00:19:21;18.30;;;7.03;;
5349;SDS011;2697;42.144;24.794;2022-07-21T00:21:46;16.57;;;6.50;;
5349;SDS011;2697;42.144;24.794;2022-07-21T00:24:12;20.47;;;7.97;;
5349;SDS011;2697;42.144;24.794;2022-07-21T00:26:37;15.20;;;7.30;;
5349;SDS011;2697;42.144;24.794;2022-07-21T00:29:03;18.60;;;6.60;;
5349;SDS011;2697;42.144;24.794;2022-07-21T00:31:28;15.50;;;6.00;;
5349;SDS011;2697;42.144;24.794;2022-07-21T00:33:54;16.87;;;5.67;;
5349;SDS011;2697;42.144;24.794;2022-07-21T00:36:20;22.13;;;5.40;;
5349;SDS011;2697;42.144;24.794;2022-07-21T00:38:46;14.80;;;4.50;;
5349;SDS011;2697;42.144;24.794;2022-07-21T00:41:12;10.77;;;5.97;;
5349;SDS011;2697;42.144;24.794;2022-07-21T00:43:39;14.20;;;5.73;;
5349;SDS011;2697;42.144;24.794;2022-07-21T00:46:04;14.27;;;6.57;;
5349;SDS011;2697;42.144;24.794;2022-07-21T00:48:30;12.50;;;5.13;;
5349;SDS011;2697;42.144;24.794;2022-07-21T00:50:56;12.13;;;4.83;;
5349;SDS011;2697;42.144;24.794;2022-07-21T00:53:21;13.80;;;5.30;;
5349;SDS011;2697;42.144;24.794;2022-07-21T00:55:47;10.23;;;4.50;;
5349;SDS011;2697;42.144;24.794;2022-07-21T00:58:12;15.90;;;5.70;;
5349;SDS011;2697;42.144;24.794;2022-07-21T01:00:38;12.83;;;3.80;;
5349;SDS011;2697;42.144;24.794;2022-07-21T01:03:04;12.47;;;3.83;;
5349;SDS011;2697;42.144;24.794;2022-07-21T01:05:30;12.33;;;3.90;;
5349;SDS011;2697;42.144;24.794;2022-07-21T01:07:56;17.43;;;4.80;;
5349;SDS011;2697;42.144;24.794;2022-07-21T01:10:27;7.23;;;4.00;;
5349;SDS011;2697;42.144;24.794;2022-07-21T01:12:54;10.63;;;3.83;;
5349;SDS011;2697;42.144;24.794;2022-07-21T01:15:19;15.47;;;4.17;;
5349;SDS011;2697;42.144;24.794;2022-07-21T01:17:45;8.43;;;4.00;;
5349;SDS011;2697;42.144;24.794;2022-07-21T01:20:13;14.63;;;3.00;;
5349;SDS011;2697;42.144;24.794;2022-07-21T01:22:41;8.50;;;2.93;;
5349;SDS011;2697;42.144;24.794;2022-07-21T01:25:08;5.40;;;2.83;;
5349;SDS011;2697;42.144;24.794;2022-07-21T01:27:35;5.33;;;3.40;;
5349;SDS011;2697;42.144;24.794;2022-07-21T01:30:01;4.20;;;3.07;;
5349;SDS011;2697;42.144;24.794;2022-07-21T01:32:28;6.27;;;2.53;;
5349;SDS011;2697;42.144;24.794;2022-07-21T01:34:53;15.57;;;3.00;;
5349;SDS011;2697;42.144;24.794;2022-07-21T01:37:22;3.50;;;2.10;;
5349;SDS011;2697;42.144;24.794;2022-07-21T01:39:49;7.13;;;2.90;;
5349;SDS011;2697;42.144;24.794;2022-07-21T01:42:33;5.70;;;2.70;;
5349;SDS011;2697;42.144;24.794;2022-07-21T01:44:59;5.77;;;2.43;;
5349;SDS011;2697;42.144;24.794;2022-07-21T01:47:24;6.57;;;2.73;;
5349;SDS011;2697;42.144;24.794;2022-07-21T01:49:50;7.87;;;2.40;;
5349;SDS011;2697;42.144;24.794;2022-07-21T01:52:15;4.47;;;2.20;;
5349;SDS011;2697;42.144;24.794;2022-07-21T01:54:41;3.83;;;3.07;;
5349;SDS011;2697;42.144;24.794;2022-07-21T01:57:06;5.20;;;2.50;;
5349;SDS011;2697;42.144;24.794;2022-07-21T01:59:32;7.10;;;3.30;;
5349;SDS011;2697;42.144;24.794;2022-07-21T02:01:57;7.93;;;2.80;;
5349;SDS011;2697;42.144;24.794;2022-07-21T02:04:23;8.30;;;4.00;;
5349;SDS011;2697;42.144;24.794;2022-07-21T02:06:48;9.47;;;3.27;;
5349;SDS011;2697;42.144;24.794;2022-07-21T02:09:13;6.47;;;3.23;;
5349;SDS011;2697;42.144;24.794;2022-07-21T02:11:39;7.30;;;3.87;;
5349;SDS011;2697;42.144;24.794;2022-07-21T02:14:04;10.23;;;3.93;;
5349;SDS011;2697;42.144;24.794;2022-07-21T02:16:30;7.97;;;3.47;;
5349;SDS011;2697;42.144;24.794;2022-07-21T02:18:55;15.17;;;4.50;;
5349;SDS011;2697;42.144;24.794;2022-07-21T02:21:21;16.37;;;4.20;;
5349;SDS011;2697;42.144;24.794;2022-07-21T02:23:46;7.57;;;3.93;;
5349;SDS011;2697;42.144;24.794;2022-07-21T02:26:12;11.10;;;3.83;;
5349;SDS011;2697;42.144;24.794;2022-07-21T02:28:37;12.40;;;4.17;;
5349;SDS011;2697;42.144;24.794;2022-07-21T02:31:03;12.67;;;3.67;;
5349;SDS011;2697;42.144;24.794;2022-07-21T02:33:29;15.73;;;3.70;;
5349;SDS011;2697;42.144;24.794;2022-07-21T02:35:54;8.60;;;3.87;;
5349;SDS011;2697;42.144;24.794;2022-07-21T02:38:20;3.83;;;3.10;;
5349;SDS011;2697;42.144;24.794;2022-07-21T02:40:45;8.87;;;4.20;;
5349;SDS011;2697;42.144;24.794;2022-07-21T02:43:11;6.83;;;3.77;;
5349;SDS011;2697;42.144;24.794;2022-07-21T02:45:36;14.13;;;3.00;;
5349;SDS011;2697;42.144;24.794;2022-07-21T02:48:03;8.20;;;3.50;;
5349;SDS011;2697;42.144;24.794;2022-07-21T02:50:31;4.37;;;2.60;;
5349;SDS011;2697;42.144;24.794;2022-07-21T02:52:59;11.50;;;2.87;;
5349;SDS011;2697;42.144;24.794;2022-07-21T02:55:26;5.40;;;3.10;;
5349;SDS011;2697;42.144;24.794;2022-07-21T03:00:41;4.23;;;2.83;;
5349;SDS011;2697;42.144;24.794;2022-07-21T03:03:08;7.17;;;2.93;;
5349;SDS011;2697;42.144;24.794;2022-07-21T03:05:34;9.10;;;2.93;;
5349;SDS011;2697;42.144;24.794;2022-07-21T03:08:01;9.17;;;3.20;;
5349;SDS011;2697;42.144;24.794;2022-07-21T03:10:28;5.00;;;2.43;;
5349;SDS011;2697;42.144;24.794;2022-07-21T03:12:53;5.40;;;2.10;;
5349;SDS011;2697;42.144;24.794;2022-07-21T03:15:18;6.30;;;3.03;;
5349;SDS011;2697;42.144;24.794;2022-07-21T03:17:44;3.83;;;2.67;;
5349;SDS011;2697;42.144;24.794;2022-07-21T03:20:10;5.03;;;2.97;;
5349;SDS011;2697;42.144;24.794;2022-07-21T03:22:35;8.27;;;2.90;;
5349;SDS011;2697;42.144;24.794;2022-07-21T03:25:01;5.93;;;2.67;;
5349;SDS011;2697;42.144;24.794;2022-07-21T03:27:28;6.57;;;2.67;;
5349;SDS011;2697;42.144;24.794;2022-07-21T03:29:53;3.30;;;2.10;;
5349;SDS011;2697;42.144;24.794;2022-07-21T03:32:19;4.60;;;3.10;;
5349;SDS011;2697;42.144;24.794;2022-07-21T03:34:44;7.80;;;3.20;;
5349;SDS011;2697;42.144;24.794;2022-07-21T03:37:10;5.53;;;3.27;;
5349;SDS011;2697;42.144;24.794;2022-07-21T03:39:36;17.50;;;4.50;;
5349;SDS011;2697;42.144;24.794;2022-07-21T03:42:02;5.70;;;3.60;;
5349;SDS011;2697;42.144;24.794;2022-07-21T03:44:28;9.20;;;3.97;;
5349;SDS011;2697;42.144;24.794;2022-07-21T03:46:53;6.60;;;4.00;;
5349;SDS011;2697;42.144;24.794;2022-07-21T03:49:19;12.23;;;3.83;;
5349;SDS011;2697;42.144;24.794;2022-07-21T03:51:44;7.10;;;3.33;;
5349;SDS011;2697;42.144;24.794;2022-07-21T03:54:11;10.00;;;4.10;;
5349;SDS011;2697;42.144;24.794;2022-07-21T03:56:36;8.90;;;4.70;;
5349;SDS011;2697;42.144;24.794;2022-07-21T03:59:02;8.50;;;3.80;;
5349;SDS011;2697;42.144;24.794;2022-07-21T04:01:27;12.67;;;4.20;;
5349;SDS011;2697;42.144;24.794;2022-07-21T04:03:52;15.10;;;4.10;;
5349;SDS011;2697;42.144;24.794;2022-07-21T04:06:18;9.37;;;4.67;;
5349;SDS011;2697;42.144;24.794;2022-07-21T04:08:43;7.37;;;3.73;;
5349;SDS011;2697;42.144;24.794;2022-07-21T04:11:09;10.73;;;4.60;;
5349;SDS011;2697;42.144;24.794;2022-07-21T04:13:34;11.30;;;4.63;;
5349;SDS011;2697;42.144;24.794;2022-07-21T04:15:59;14.73;;;4.07;;
5349;SDS011;2697;42.144;24.794;2022-07-21T04:18:25;7.67;;;4.10;;
5349;SDS011;2697;42.144;24.794;2022-07-21T04:20:50;17.87;;;4.80;;
5349;SDS011;2697;42.144;24.794;2022-07-21T04:23:16;13.43;;;4.70;;
5349;SDS011;2697;42.144;24.794;2022-07-21T04:25:41;14.83;;;4.20;;
5349;SDS011;2697;42.144;24.794;2022-07-21T04:28:07;10.03;;;3.73;;
5349;SDS011;2697;42.144;24.794;2022-07-21T04:30:33;11.27;;;4.50;;
5349;SDS011;2697;42.144;24.794;2022-07-21T04:32:58;9.10;;;4.57;;
5349;SDS011;2697;42.144;24.794;2022-07-21T04:35:24;11.50;;;4.33;;
5349;SDS011;2697;42.144;24.794;2022-07-21T04:37:50;11.03;;;4.20;;
5349;SDS011;2697;42.144;24.794;2022-07-21T04:40:16;16.93;;;3.63;;
5349;SDS011;2697;42.144;24.794;2022-07-21T04:42:42;5.30;;;3.60;;
5349;SDS011;2697;42.144;24.794;2022-07-21T04:45:09;16.47;;;3.40;;
5349;SDS011;2697;42.144;24.794;2022-07-21T04:47:47;7.77;;;3.90;;
5349;SDS011;2697;42.144;24.794;2022-07-21T04:50:14;12.60;;;3.37;;
5349;SDS011;2697;42.144;24.794;2022-07-21T04:52:40;8.43;;;3.13;;
5349;SDS011;2697;42.144;24.794;2022-07-21T04:55:06;6.60;;;2.93;;
5349;SDS011;2697;42.144;24.794;2022-07-21T04:57:40;9.87;;;3.43;;
5349;SDS011;2697;42.144;24.794;2022-07-21T05:00:09;11.80;;;3.50;;
5349;SDS011;2697;42.144;24.794;2022-07-21T05:02:37;8.53;;;2.60;;
5349;SDS011;2697;42.144;24.794;2022-07-21T05:05:03;4.43;;;3.37;;
5349;SDS011;2697;42.144;24.794;2022-07-21T05:07:29;9.30;;;2.70;;
5349;SDS011;2697;42.144;24.794;2022-07-21T05:09:55;11.82;;;3.17;;
5349;SDS011;2697;42.144;24.794;2022-07-21T05:12:22;5.25;;;3.13;;
5349;SDS011;2697;42.144;24.794;2022-07-21T05:14:47;10.15;;;2.97;;
5349;SDS011;2697;42.144;24.794;2022-07-21T05:17:13;6.32;;;3.50;;
5349;SDS011;2697;42.144;24.794;2022-07-21T05:19:38;6.63;;;2.90;;
5349;SDS011;2697;42.144;24.794;2022-07-21T05:22:04;6.22;;;2.35;;
5349;SDS011;2697;42.144;24.794;2022-07-21T05:24:29;8.63;;;2.88;;
5349;SDS011;2697;42.144;24.794;2022-07-21T05:26:54;11.05;;;3.03;;
5349;SDS011;2697;42.144;24.794;2022-07-21T05:29:20;8.82;;;3.17;;
5349;SDS011;2697;42.144;24.794;2022-07-21T05:31:45;15.45;;;3.40;;
5349;SDS011;2697;42.144;24.794;2022-07-21T05:34:10;5.75;;;3.05;;
5349;SDS011;2697;42.144;24.794;2022-07-21T05:36:36;7.85;;;3.13;;
5349;SDS011;2697;42.144;24.794;2022-07-21T05:39:02;7.20;;;3.25;;
5349;SDS011;2697;42.144;24.794;2022-07-21T05:41:28;10.13;;;4.45;;
5349;SDS011;2697;42.144;24.794;2022-07-21T05:43:53;42.92;;;5.43;;
5349;SDS011;2697;42.144;24.794;2022-07-21T05:46:18;8.45;;;4.30;;
5349;SDS011;2697;42.144;24.794;2022-07-21T05:48:44;6.43;;;3.40;;
5349;SDS011;2697;42.144;24.794;2022-07-21T05:51:09;5.05;;;2.88;;
5349;SDS011;2697;42.144;24.794;2022-07-21T05:53:35;4.65;;;3.03;;
5349;SDS011;2697;42.144;24.794;2022-07-21T05:56:00;13.95;;;3.90;;
5349;SDS011;2697;42.144;24.794;2022-07-21T05:58:26;5.45;;;3.33;;
5349;SDS011;2697;42.144;24.794;2022-07-21T06:00:52;10.00;;;3.08;;
5349;SDS011;2697;42.144;24.794;2022-07-21T06:03:33;13.25;;;2.75;;
5349;SDS011;2697;42.144;24.794;2022-07-21T06:06:03;6.15;;;2.92;;
5349;SDS011;2697;42.144;24.794;2022-07-21T06:08:28;9.13;;;3.33;;
5349;SDS011;2697;42.144;24.794;2022-07-21T06:10:54;14.45;;;3.08;;
5349;SDS011;2697;42.144;24.794;2022-07-21T06:13:20;5.38;;;2.75;;
5349;SDS011;2697;42.144;24.794;2022-07-21T06:15:45;8.35;;;2.70;;
5349;SDS011;2697;42.144;24.794;2022-07-21T06:18:11;16.25;;;2.75;;
5349;SDS011;2697;42.144;24.794;2022-07-21T06:20:36;8.20;;;2.50;;
5349;SDS011;2697;42.144;24.794;2022-07-21T06:23:02;9.73;;;2.70;;
5349;SDS011;2697;42.144;24.794;2022-07-21T06:25:27;9.23;;;3.00;;
5349;SDS011;2697;42.144;24.794;2022-07-21T06:27:52;5.85;;;2.33;;
5349;SDS011;2697;42.144;24.794;2022-07-21T06:30:20;9.68;;;1.92;;
5349;SDS011;2697;42.144;24.794;2022-07-21T06:32:45;12.35;;;3.67;;
5349;SDS011;2697;42.144;24.794;2022-07-21T06:35:10;17.77;;;2.75;;
5349;SDS011;2697;42.144;24.794;2022-07-21T06:37:36;9.65;;;2.90;;
5349;SDS011;2697;42.144;24.794;2022-07-21T06:40:01;4.03;;;2.25;;
5349;SDS011;2697;42.144;24.794;2022-07-21T06:42:28;5.68;;;1.92;;
5349;SDS011;2697;42.144;24.794;2022-07-21T06:44:53;7.28;;;2.70;;
5349;SDS011;2697;42.144;24.794;2022-07-21T06:47:19;9.02;;;1.90;;
5349;SDS011;2697;42.144;24.794;2022-07-21T06:49:44;2.63;;;2.05;;
5349;SDS011;2697;42.144;24.794;2022-07-21T06:52:10;4.97;;;2.30;;
5349;SDS011;2697;42.144;24.794;2022-07-21T06:54:35;9.95;;;2.30;;
5349;SDS011;2697;42.144;24.794;2022-07-21T06:57:01;10.80;;;1.63;;
5349;SDS011;2697;42.144;24.794;2022-07-21T06:59:26;30.98;;;2.08;;
5349;SDS011;2697;42.144;24.794;2022-07-21T07:01:51;4.05;;;1.52;;
5349;SDS011;2697;42.144;24.794;2022-07-21T07:04:17;2.13;;;1.80;;
5349;SDS011;2697;42.144;24.794;2022-07-21T07:06:42;6.18;;;1.60;;
5349;SDS011;2697;42.144;24.794;2022-07-21T07:09:08;6.85;;;1.88;;
5349;SDS011;2697;42.144;24.794;2022-07-21T07:11:33;5.90;;;2.30;;
5349;SDS011;2697;42.144;24.794;2022-07-21T07:13:59;3.58;;;1.52;;
5349;SDS011;2697;42.144;24.794;2022-07-21T07:16:25;7.35;;;1.85;;
5349;SDS011;2697;42.144;24.794;2022-07-21T07:18:50;7.57;;;2.40;;
5349;SDS011;2697;42.144;24.794;2022-07-21T07:21:16;7.88;;;2.15;;
5349;SDS011;2697;42.144;24.794;2022-07-21T07:23:41;8.15;;;2.50;;
5349;SDS011;2697;42.144;24.794;2022-07-21T07:26:07;5.93;;;2.22;;
5349;SDS011;2697;42.144;24.794;2022-07-21T07:28:33;8.88;;;3.05;;
5349;SDS011;2697;42.144;24.794;2022-07-21T07:30:59;4.78;;;2.00;;
5349;SDS011;2697;42.144;24.794;2022-07-21T07:33:24;12.27;;;2.40;;
5349;SDS011;2697;42.144;24.794;2022-07-21T07:35:51;7.70;;;3.30;;
5349;SDS011;2697;42.144;24.794;2022-07-21T07:38:17;2.30;;;2.15;;
5349;SDS011;2697;42.144;24.794;2022-07-21T07:40:42;9.45;;;2.70;;
5349;SDS011;2697;42.144;24.794;2022-07-21T07:43:08;6.35;;;2.88;;
5349;SDS011;2697;42.144;24.794;2022-07-21T07:45:34;11.82;;;2.60;;
5349;SDS011;2697;42.144;24.794;2022-07-21T07:48:00;11.57;;;2.20;;
5349;SDS011;2697;42.144;24.794;2022-07-21T07:50:26;9.57;;;2.35;;
5349;SDS011;2697;42.144;24.794;2022-07-21T07:52:51;12.10;;;2.25;;
5349;SDS011;2697;42.144;24.794;2022-07-21T07:55:17;2.67;;;2.47;;
5349;SDS011;2697;42.144;24.794;2022-07-21T07:57:42;10.88;;;2.83;;
5349;SDS011;2697;42.144;24.794;2022-07-21T08:00:12;6.03;;;2.88;;
5349;SDS011;2697;42.144;24.794;2022-07-21T08:02:40;12.00;;;3.08;;
5349;SDS011;2697;42.144;24.794;2022-07-21T08:05:06;10.43;;;3.35;;
5349;SDS011;2697;42.144;24.794;2022-07-21T08:07:33;3.45;;;2.47;;
5349;SDS011;2697;42.144;24.794;2022-07-21T08:09:59;11.95;;;2.53;;
5349;SDS011;2697;42.144;24.794;2022-07-21T08:12:25;2.70;;;1.90;;
5349;SDS011;2697;42.144;24.794;2022-07-21T08:14:50;11.05;;;2.13;;
5349;SDS011;2697;42.144;24.794;2022-07-21T08:17:16;9.68;;;2.75;;
5349;SDS011;2697;42.144;24.794;2022-07-21T08:19:42;2.40;;;2.20;;
5349;SDS011;2697;42.144;24.794;2022-07-21T08:22:08;3.75;;;2.40;;
5349;SDS011;2697;42.144;24.794;2022-07-21T08:24:33;2.45;;;2.25;;
5349;SDS011;2697;42.144;24.794;2022-07-21T08:26:59;6.28;;;2.28;;
5349;SDS011;2697;42.144;24.794;2022-07-21T08:29:24;8.15;;;2.53;;
5349;SDS011;2697;42.144;24.794;2022-07-21T08:31:49;2.30;;;2.10;;
5349;SDS011;2697;42.144;24.794;2022-07-21T08:34:15;3.42;;;2.20;;
5349;SDS011;2697;42.144;24.794;2022-07-21T08:36:40;3.20;;;2.40;;
5349;SDS011;2697;42.144;24.794;2022-07-21T08:39:05;4.22;;;2.47;;
5349;SDS011;2697;42.144;24.794;2022-07-21T08:41:31;3.63;;;2.20;;
5349;SDS011;2697;42.144;24.794;2022-07-21T08:43:57;7.63;;;2.25;;
5349;SDS011;2697;42.144;24.794;2022-07-21T08:46:23;3.20;;;2.55;;
5349;SDS011;2697;42.144;24.794;2022-07-21T08:48:49;8.95;;;2.25;;
5349;SDS011;2697;42.144;24.794;2022-07-21T08:51:16;3.65;;;2.20;;
5349;SDS011;2697;42.144;24.794;2022-07-21T08:53:45;6.53;;;2.70;;
5349;SDS011;2697;42.144;24.794;2022-07-21T08:56:11;7.22;;;2.50;;
5349;SDS011;2697;42.144;24.794;2022-07-21T08:58:37;2.60;;;2.40;;
5349;SDS011;2697;42.144;24.794;2022-07-21T09:01:03;3.55;;;2.40;;
5349;SDS011;2697;42.144;24.794;2022-07-21T09:03:29;5.35;;;1.98;;
5349;SDS011;2697;42.144;24.794;2022-07-21T09:06:04;3.10;;;2.22;;
5349;SDS011;2697;42.144;24.794;2022-07-21T09:08:39;9.43;;;2.38;;
5349;SDS011;2697;42.144;24.794;2022-07-21T09:11:26;4.40;;;2.13;;
5349;SDS011;2697;42.144;24.794;2022-07-21T09:14:09;3.13;;;1.65;;
5349;SDS011;2697;42.144;24.794;2022-07-21T09:16:40;7.38;;;2.42;;
5349;SDS011;2697;42.144;24.794;2022-07-21T09:21:42;3.25;;;1.90;;
5349;SDS011;2697;42.144;24.794;2022-07-21T09:24:14;5.63;;;2.33;;
5349;SDS011;2697;42.144;24.794;2022-07-21T09:27:04;5.28;;;2.60;;
5349;SDS011;2697;42.144;24.794;2022-07-21T09:34:51;2.53;;;2.13;;
5349;SDS011;2697;42.144;24.794;2022-07-21T09:37:24;4.30;;;2.03;;
5349;SDS011;2697;42.144;24.794;2022-07-21T09:39:51;3.58;;;2.38;;
5349;SDS011;2697;42.144;24.794;2022-07-21T09:42:25;2.85;;;2.10;;
5349;SDS011;2697;42.144;24.794;2022-07-21T09:45:00;7.95;;;2.85;;
5349;SDS011;2697;42.144;24.794;2022-07-21T09:47:30;3.00;;;1.90;;
5349;SDS011;2697;42.144;24.794;2022-07-21T09:49:57;6.55;;;2.50;;
5349;SDS011;2697;42.144;24.794;2022-07-21T09:52:27;2.95;;;2.63;;
5349;SDS011;2697;42.144;24.794;2022-07-21T09:54:56;4.90;;;2.75;;
5349;SDS011;2697;42.144;24.794;2022-07-21T09:57:33;1.90;;;1.60;;
5349;SDS011;2697;42.144;24.794;2022-07-21T09:59:59;5.25;;;2.40;;
5349;SDS011;2697;42.144;24.794;2022-07-21T10:02:26;2.53;;;2.15;;
5349;SDS011;2697;42.144;24.794;2022-07-21T10:04:57;2.08;;;1.98;;
5349;SDS011;2697;42.144;24.794;2022-07-21T10:07:28;10.65;;;2.22;;
5349;SDS011;2697;42.144;24.794;2022-07-21T10:09:55;2.90;;;2.40;;
5349;SDS011;2697;42.144;24.794;2022-07-21T10:12:22;2.50;;;2.30;;
5349;SDS011;2697;42.144;24.794;2022-07-21T10:14:50;4.65;;;2.13;;
5349;SDS011;2697;42.144;24.794;2022-07-21T10:17:16;2.42;;;2.17;;
5349;SDS011;2697;42.144;24.794;2022-07-21T10:25:20;3.97;;;3.13;;
5349;SDS011;2697;42.144;24.794;2022-07-21T10:30:51;4.43;;;2.40;;
5349;SDS011;2697;42.144;24.794;2022-07-21T10:33:20;3.10;;;2.22;;
5349;SDS011;2697;42.144;24.794;2022-07-21T10:36:06;11.85;;;2.17;;
5349;SDS011;2697;42.144;24.794;2022-07-21T10:38:33;2.70;;;2.08;;
5349;SDS011;2697;42.144;24.794;2022-07-21T10:40:59;5.15;;;2.20;;
5349;SDS011;2697;42.144;24.794;2022-07-21T10:45:52;7.32;;;2.30;;
5349;SDS011;2697;42.144;24.794;2022-07-21T10:51:16;4.18;;;2.70;;
5349;SDS011;2697;42.144;24.794;2022-07-21T10:53:42;2.20;;;1.90;;
5349;SDS011;2697;42.144;24.794;2022-07-21T10:56:09;3.50;;;2.17;;
5349;SDS011;2697;42.144;24.794;2022-07-21T10:58:51;9.77;;;2.38;;
5349;SDS011;2697;42.144;24.794;2022-07-21T11:03:43;3.97;;;1.90;;
5349;SDS011;2697;42.144;24.794;2022-07-21T11:06:14;2.75;;;2.38;;
5349;SDS011;2697;42.144;24.794;2022-07-21T11:08:45;11.90;;;2.65;;
5349;SDS011;2697;42.144;24.794;2022-07-21T11:11:16;2.05;;;1.95;;
5349;SDS011;2697;42.144;24.794;2022-07-21T11:19:40;10.25;;;2.25;;
5349;SDS011;2697;42.144;24.794;2022-07-21T11:24:51;1.63;;;1.52;;
5349;SDS011;2697;42.144;24.794;2022-07-21T11:27:23;4.38;;;1.98;;
5349;SDS011;2697;42.144;24.794;2022-07-21T11:29:53;2.25;;;2.05;;
5349;SDS011;2697;42.144;24.794;2022-07-21T11:32:20;3.67;;;2.35;;
5349;SDS011;2697;42.144;24.794;2022-07-21T11:37:12;6.70;;;3.03;;
5349;SDS011;2697;42.144;24.794;2022-07-21T11:39:39;3.13;;;2.28;;
5349;SDS011;2697;42.144;24.794;2022-07-21T11:42:06;2.38;;;2.17;;
5349;SDS011;2697;42.144;24.794;2022-07-21T11:44:37;2.50;;;2.30;;
5349;SDS011;2697;42.144;24.794;2022-07-21T11:47:04;3.75;;;2.20;;
5349;SDS011;2697;42.144;24.794;2022-07-21T11:49:31;5.00;;;2.50;;
5349;SDS011;2697;42.144;24.794;2022-07-21T11:52:04;2.55;;;2.17;;
5349;SDS011;2697;42.144;24.794;2022-07-21T11:54:35;6.70;;;2.58;;
5349;SDS011;2697;42.144;24.794;2022-07-21T11:57:06;2.85;;;2.65;;
5349;SDS011;2697;42.144;24.794;2022-07-21T11:59:33;2.50;;;2.30;;
5349;SDS011;2697;42.144;24.794;2022-07-21T12:02:02;3.10;;;2.22;;
5349;SDS011;2697;42.144;24.794;2022-07-21T12:07:25;8.13;;;2.10;;
5349;SDS011;2697;42.144;24.794;2022-07-21T12:10:06;3.95;;;2.20;;
5349;SDS011;2697;42.144;24.794;2022-07-21T12:13:05;2.67;;;2.08;;
5349;SDS011;2697;42.144;24.794;2022-07-21T12:15:32;7.07;;;1.77;;
5349;SDS011;2697;42.144;24.794;2022-07-21T12:18:03;2.00;;;1.85;;
5349;SDS011;2697;42.144;24.794;2022-07-21T12:20:30;2.00;;;1.80;;
5349;SDS011;2697;42.144;24.794;2022-07-21T12:23:02;5.25;;;2.30;;
5349;SDS011;2697;42.144;24.794;2022-07-21T12:25:42;4.60;;;2.13;;
5349;SDS011;2697;42.144;24.794;2022-07-21T12:28:07;1.90;;;1.77;;
5349;SDS011;2697;42.144;24.794;2022-07-21T12:30:50;4.07;;;1.88;;
5349;SDS011;2697;42.144;24.794;2022-07-21T12:33:17;7.70;;;2.30;;
5349;SDS011;2697;42.144;24.794;2022-07-21T12:35:57;6.93;;;1.67;;
5349;SDS011;2697;42.144;24.794;2022-07-21T12:38:35;2.00;;;1.77;;
5349;SDS011;2697;42.144;24.794;2022-07-21T12:41:21;1.80;;;1.70;;
5349;SDS011;2697;42.144;24.794;2022-07-21T12:43:56;3.60;;;1.67;;
5349;SDS011;2697;42.144;24.794;2022-07-21T12:46:27;6.70;;;2.15;;
5349;SDS011;2697;42.144;24.794;2022-07-21T12:49:02;4.30;;;2.40;;
5349;SDS011;2697;42.144;24.794;2022-07-21T12:51:31;2.95;;;1.80;;
5349;SDS011;2697;42.144;24.794;2022-07-21T12:53:57;4.18;;;2.30;;
5349;SDS011;2697;42.144;24.794;2022-07-21T12:56:23;2.33;;;2.13;;
5349;SDS011;2697;42.144;24.794;2022-07-21T12:58:51;4.65;;;2.35;;
5349;SDS011;2697;42.144;24.794;2022-07-21T13:01:17;1.65;;;1.55;;
5349;SDS011;2697;42.144;24.794;2022-07-21T13:03:45;3.03;;;2.03;;
5349;SDS011;2697;42.144;24.794;2022-07-21T13:06:11;2.67;;;2.47;;
5349;SDS011;2697;42.144;24.794;2022-07-21T13:08:39;6.80;;;2.33;;
5349;SDS011;2697;42.144;24.794;2022-07-21T13:11:05;10.35;;;2.03;;
5349;SDS011;2697;42.144;24.794;2022-07-21T13:13:32;8.45;;;1.92;;
5349;SDS011;2697;42.144;24.794;2022-07-21T13:15:58;4.43;;;2.25;;
5349;SDS011;2697;42.144;24.794;2022-07-21T13:18:24;2.33;;;2.13;;
5349;SDS011;2697;42.144;24.794;2022-07-21T13:20:50;3.13;;;2.13;;
5349;SDS011;2697;42.144;24.794;2022-07-21T13:23:16;5.50;;;3.03;;
5349;SDS011;2697;42.144;24.794;2022-07-21T13:25:43;5.00;;;2.20;;
5349;SDS011;2697;42.144;24.794;2022-07-21T13:28:08;1.90;;;1.80;;
5349;SDS011;2697;42.144;24.794;2022-07-21T13:30:34;4.05;;;2.33;;
5349;SDS011;2697;42.144;24.794;2022-07-21T13:32:59;3.33;;;2.17;;
5349;SDS011;2697;42.144;24.794;2022-07-21T13:35:25;3.17;;;2.00;;
5349;SDS011;2697;42.144;24.794;2022-07-21T13:37:51;2.75;;;1.98;;
5349;SDS011;2697;42.144;24.794;2022-07-21T13:40:16;2.85;;;2.15;;
5349;SDS011;2697;42.144;24.794;2022-07-21T13:42:41;3.58;;;2.70;;
5349;SDS011;2697;42.144;24.794;2022-07-21T13:45:07;6.90;;;2.67;;
5349;SDS011;2697;42.144;24.794;2022-07-21T13:47:36;7.03;;;2.58;;
5349;SDS011;2697;42.144;24.794;2022-07-21T13:50:01;2.53;;;2.33;;
5349;SDS011;2697;42.144;24.794;2022-07-21T13:52:28;4.38;;;1.80;;
5349;SDS011;2697;42.144;24.794;2022-07-21T13:54:54;5.45;;;2.05;;
5349;SDS011;2697;42.144;24.794;2022-07-21T13:57:19;2.63;;;2.10;;
5349;SDS011;2697;42.144;24.794;2022-07-21T13:59:44;4.72;;;2.50;;
5349;SDS011;2697;42.144;24.794;2022-07-21T14:02:10;2.85;;;2.50;;
5349;SDS011;2697;42.144;24.794;2022-07-21T14:04:35;2.80;;;2.17;;
5349;SDS011;2697;42.144;24.794;2022-07-21T14:07:01;1.90;;;1.80;;
5349;SDS011;2697;42.144;24.794;2022-07-21T14:09:26;2.75;;;2.55;;
5349;SDS011;2697;42.144;24.794;2022-07-21T14:11:52;9.18;;;3.05;;
5349;SDS011;2697;42.144;24.794;2022-07-21T14:14:17;8.75;;;2.90;;
5349;SDS011;2697;42.144;24.794;2022-07-21T14:16:46;2.22;;;1.88;;
5349;SDS011;2697;42.144;24.794;2022-07-21T14:19:13;6.20;;;2.10;;
5349;SDS011;2697;42.144;24.794;2022-07-21T14:21:39;4.05;;;2.67;;
5349;SDS011;2697;42.144;24.794;2022-07-21T14:24:04;50.67;;;3.13;;
5349;SDS011;2697;42.144;24.794;2022-07-21T14:26:48;7.00;;;2.47;;
5349;SDS011;2697;42.144;24.794;2022-07-21T14:29:14;5.75;;;2.40;;
5349;SDS011;2697;42.144;24.794;2022-07-21T14:31:39;4.18;;;3.45;;
5349;SDS011;2697;42.144;24.794;2022-07-21T14:34:04;3.70;;;2.65;;
5349;SDS011;2697;42.144;24.794;2022-07-21T14:36:30;2.55;;;2.22;;
5349;SDS011;2697;42.144;24.794;2022-07-21T14:38:55;3.05;;;2.33;;
5349;SDS011;2697;42.144;24.794;2022-07-21T14:41:20;5.43;;;2.17;;
5349;SDS011;2697;42.144;24.794;2022-07-21T14:43:46;4.63;;;2.72;;
5349;SDS011;2697;42.144;24.794;2022-07-21T14:46:13;4.53;;;3.40;;
5349;SDS011;2697;42.144;24.794;2022-07-21T14:48:39;5.85;;;2.78;;
5349;SDS011;2697;42.144;24.794;2022-07-21T14:51:05;5.55;;;3.47;;
5349;SDS011;2697;42.144;24.794;2022-07-21T14:53:30;5.07;;;2.83;;
5349;SDS011;2697;42.144;24.794;2022-07-21T14:55:55;10.15;;;2.95;;
5349;SDS011;2697;42.144;24.794;2022-07-21T14:58:21;3.15;;;2.63;;
5349;SDS011;2697;42.144;24.794;2022-07-21T15:00:48;6.22;;;3.90;;
5349;SDS011;2697;42.144;24.794;2022-07-21T15:03:13;11.13;;;2.60;;
5349;SDS011;2697;42.144;24.794;2022-07-21T15:05:39;4.03;;;2.92;;
5349;SDS011;2697;42.144;24.794;2022-07-21T15:08:05;5.03;;;2.40;;
5349;SDS011;2697;42.144;24.794;2022-07-21T15:10:30;5.10;;;2.28;;
5349;SDS011;2697;42.144;24.794;2022-07-21T15:12:56;4.22;;;2.42;;
5349;SDS011;2697;42.144;24.794;2022-07-21T15:15:21;3.00;;;2.45;;
5349;SDS011;2697;42.144;24.794;2022-07-21T15:17:46;2.55;;;2.35;;
5349;SDS011;2697;42.144;24.794;2022-07-21T15:20:12;5.32;;;2.97;;
5349;SDS011;2697;42.144;24.794;2022-07-21T15:22:37;7.53;;;2.70;;
5349;SDS011;2697;42.144;24.794;2022-07-21T15:25:03;5.40;;;2.40;;
5349;SDS011;2697;42.144;24.794;2022-07-21T15:27:34;14.48;;;3.60;;
5349;SDS011;2697;42.144;24.794;2022-07-21T15:30:02;3.40;;;2.50;;
5349;SDS011;2697;42.144;24.794;2022-07-21T15:32:28;6.13;;;3.22;;
5349;SDS011;2697;42.144;24.794;2022-07-21T15:34:54;4.03;;;2.53;;
5349;SDS011;2697;42.144;24.794;2022-07-21T15:37:19;7.32;;;3.00;;
5349;SDS011;2697;42.144;24.794;2022-07-21T15:39:45;3.25;;;2.90;;